createdAt,value
2022-09-07T00:00:53.614Z,1.25
2022-09-07T00:03:21.711Z,1.08
2022-09-07T00:05:50.815Z,1.42
2022-09-07T00:08:20.412Z,1.10
2022-09-07T00:10:59.649Z,1.25
2022-09-07T00:13:31.417Z,1.35
2022-09-07T00:15:59.249Z,1.00
2022-09-07T00:18:26.681Z,1.20
2022-09-07T00:21:02.976Z,1.17
2022-09-07T00:23:31.600Z,0.98
2022-09-07T00:26:04.456Z,1.40
2022-09-07T00:28:32.609Z,1.40
2022-09-07T00:31:00.104Z,1.52
2022-09-07T00:33:28.174Z,2.03
2022-09-07T00:35:57.343Z,1.63
2022-09-07T00:38:24.901Z,1.40
2022-09-07T00:40:53.239Z,1.00
2022-09-07T00:43:51.848Z,1.13
2022-09-07T00:46:24.848Z,1.13
2022-09-07T00:49:00.689Z,1.20
2022-09-07T00:51:38.785Z,1.00
2022-09-07T00:54:10.309Z,0.80
2022-09-07T00:56:41.290Z,1.08
2022-09-07T00:59:10.795Z,1.38
2022-09-07T01:01:39.330Z,1.13
2022-09-07T01:04:08.059Z,1.20
2022-09-07T01:06:38.254Z,1.10
2022-09-07T01:09:13.698Z,1.00
2022-09-07T01:11:45.626Z,1.05
2022-09-07T01:14:15.616Z,0.80
2022-09-07T01:16:51.832Z,1.08
2022-09-07T01:19:40.377Z,0.88
2022-09-07T01:22:16.554Z,0.88
2022-09-07T01:25:03.053Z,0.82
2022-09-07T01:28:20.901Z,0.77
2022-09-07T01:31:07.392Z,1.27
2022-09-07T01:33:52.143Z,1.15
2022-09-07T01:36:31.468Z,1.45
2022-09-07T01:39:02.660Z,1.35
2022-09-07T01:42:01.235Z,1.00
2022-09-07T01:44:36.037Z,1.27
2022-09-07T01:47:14.008Z,1.00
2022-09-07T01:49:57.946Z,1.25
2022-09-07T01:52:38.173Z,0.88
2022-09-07T01:55:22.143Z,0.80
2022-09-07T01:58:07.846Z,1.17
2022-09-07T02:00:37.935Z,0.88
2022-09-07T02:03:19.989Z,1.08
2022-09-07T02:05:59.987Z,0.90
2022-09-07T02:08:29.368Z,0.90
2022-09-07T02:11:02.297Z,0.75
2022-09-07T02:13:38.495Z,0.80
2022-09-07T02:16:26.759Z,0.90
2022-09-07T02:18:59.177Z,0.80
2022-09-07T02:21:36.367Z,0.73
2022-09-07T02:24:23.153Z,1.27
2022-09-07T02:26:53.583Z,0.80
2022-09-07T02:29:21.375Z,1.00
2022-09-07T02:31:50.727Z,1.10
2022-09-07T02:34:18.455Z,0.77
2022-09-07T02:36:49.320Z,1.00
2022-09-07T02:39:16.933Z,1.10
2022-09-07T02:41:45.875Z,0.90
2022-09-07T02:44:35.545Z,1.17
2022-09-07T02:47:48.523Z,1.25
2022-09-07T02:51:01.097Z,0.95
2022-09-07T02:53:52.605Z,1.15
2022-09-07T02:56:57.685Z,0.95
2022-09-07T02:59:30.837Z,1.02
2022-09-07T03:02:12.922Z,0.88
2022-09-07T03:04:47.557Z,1.38
2022-09-07T03:07:22.419Z,1.30
2022-09-07T03:09:53.153Z,1.13
2022-09-07T03:12:21.093Z,1.50
2022-09-07T03:14:48.409Z,1.75
2022-09-07T03:17:16.023Z,2.08
2022-09-07T03:19:43.385Z,2.08
2022-09-07T03:22:10.675Z,1.77
2022-09-07T03:24:38.067Z,1.95
2022-09-07T03:27:05.523Z,2.05
2022-09-07T03:29:32.907Z,1.85
2022-09-07T03:32:00.169Z,2.20
2022-09-07T03:34:27.543Z,1.50
2022-09-07T03:36:54.829Z,2.45
2022-09-07T03:39:27.632Z,3.55
2022-09-07T03:41:54.887Z,4.15
2022-09-07T03:44:22.221Z,4.00
2022-09-07T03:46:49.530Z,4.10
2022-09-07T03:49:17.351Z,5.22
2022-09-07T03:51:44.855Z,4.68
2022-09-07T03:54:12.234Z,5.40
2022-09-07T03:56:39.490Z,5.50
2022-09-07T03:59:06.817Z,5.00
2022-09-07T04:01:34.732Z,3.53
2022-09-07T04:04:02.836Z,3.00
2022-09-07T04:06:31.698Z,3.25
2022-09-07T04:09:04.817Z,2.30
2022-09-07T04:11:32.838Z,2.33
2022-09-07T04:14:00.201Z,2.15
2022-09-07T04:16:28.948Z,1.83
2022-09-07T04:18:56.374Z,1.95
2022-09-07T04:21:24.702Z,1.92
2022-09-07T04:23:52.620Z,2.40
2022-09-07T04:26:26.335Z,1.50
2022-09-07T04:28:54.588Z,1.50
2022-09-07T04:31:23.160Z,2.05
2022-09-07T04:33:51.999Z,1.70
2022-09-07T04:36:20.278Z,1.55
2022-09-07T04:38:47.900Z,1.73
2022-09-07T04:41:19.067Z,2.17
2022-09-07T04:43:46.990Z,1.98
2022-09-07T04:46:26.382Z,2.05
2022-09-07T04:48:55.756Z,1.88
2022-09-07T04:51:25.496Z,2.10
2022-09-07T04:53:54.574Z,2.58
2022-09-07T04:56:22.811Z,2.20
2022-09-07T04:58:50.493Z,2.42
2022-09-07T05:01:20.439Z,2.42
2022-09-07T05:03:49.558Z,2.25
2022-09-07T05:06:18.924Z,2.30
2022-09-07T05:08:51.577Z,2.28
2022-09-07T05:11:23.844Z,3.30
2022-09-07T05:13:55.293Z,2.92
2022-09-07T05:16:24.258Z,2.80
2022-09-07T05:18:57.635Z,3.63
2022-09-07T05:21:28.274Z,3.63
2022-09-07T05:23:57.274Z,4.13
2022-09-07T05:26:27.175Z,3.50
2022-09-07T05:31:42.251Z,3.47
2022-09-07T05:36:57.221Z,3.83
2022-09-07T05:39:24.665Z,4.07
2022-09-07T05:41:52.026Z,4.65
2022-09-07T05:47:07.382Z,4.70
2022-09-07T05:49:34.742Z,4.75
2022-09-07T05:52:02.200Z,6.43
2022-09-07T05:54:29.521Z,7.50
2022-09-07T05:56:56.776Z,7.82
2022-09-07T05:59:24.065Z,7.68
2022-09-07T06:01:51.466Z,9.25
2022-09-07T06:04:19.078Z,9.30
2022-09-07T06:06:59.370Z,8.07
2022-09-07T06:09:34.133Z,8.27
2022-09-07T06:12:05.242Z,8.80
2022-09-07T06:14:33.531Z,8.68
2022-09-07T06:17:01.052Z,8.88
2022-09-07T06:19:28.377Z,8.52
2022-09-07T06:21:55.677Z,8.25
2022-09-07T06:24:23.042Z,9.68
2022-09-07T06:26:50.432Z,8.77
2022-09-07T06:29:17.693Z,9.68
2022-09-07T06:34:32.286Z,8.10
2022-09-07T06:36:59.548Z,9.82
2022-09-07T06:39:26.924Z,9.23
2022-09-07T06:44:31.082Z,8.25
2022-09-07T06:49:27.181Z,8.80
2022-09-07T06:51:55.108Z,7.85
2022-09-07T06:57:09.969Z,6.80
2022-09-07T06:59:38.194Z,6.90
2022-09-07T07:02:06.925Z,7.00
2022-09-07T07:04:40.514Z,6.20
2022-09-07T07:07:13.620Z,6.32
2022-09-07T07:09:41.696Z,7.07
2022-09-07T07:12:10.626Z,5.75
2022-09-07T07:14:40.993Z,5.15
2022-09-07T07:17:09.928Z,5.07
2022-09-07T07:19:37.444Z,6.03
2022-09-07T07:22:18.667Z,6.53
2022-09-07T07:24:52.042Z,5.93
2022-09-07T07:27:21.463Z,5.70
2022-09-07T07:29:48.845Z,6.10
2022-09-07T07:32:16.130Z,6.15
2022-09-07T07:34:43.391Z,6.50
2022-09-07T07:37:10.661Z,5.45
2022-09-07T07:42:25.758Z,6.50
2022-09-07T07:47:40.214Z,5.78
2022-09-07T07:55:43.300Z,5.07
2022-09-07T07:58:10.955Z,7.15
2022-09-07T08:00:53.729Z,4.65
2022-09-07T08:03:25.562Z,4.80
2022-09-07T08:05:53.832Z,4.90
2022-09-07T08:08:21.948Z,4.63
2022-09-07T08:10:49.667Z,3.55
2022-09-07T08:13:17.758Z,4.05
2022-09-07T08:15:46.089Z,5.32
2022-09-07T08:18:15.603Z,4.25
2022-09-07T08:20:43.293Z,4.78
2022-09-07T08:23:11.619Z,4.38
2022-09-07T08:25:39.218Z,4.20
2022-09-07T08:28:06.548Z,3.88
2022-09-07T08:30:33.774Z,5.15
2022-09-07T08:33:01.036Z,4.60
2022-09-07T08:35:28.211Z,3.83
2022-09-07T08:37:55.478Z,3.92
2022-09-07T08:40:22.830Z,3.08
2022-09-07T08:42:58.223Z,3.78
2022-09-07T08:45:39.444Z,3.30
2022-09-07T08:48:06.755Z,3.25
2022-09-07T08:50:56.939Z,2.67
2022-09-07T08:53:25.563Z,3.25
2022-09-07T08:56:04.312Z,2.83
2022-09-07T08:58:50.179Z,2.40
2022-09-07T09:01:32.000Z,2.10
2022-09-07T09:04:16.580Z,1.80
2022-09-07T09:07:16.473Z,1.77
2022-09-07T09:10:05.028Z,1.67
2022-09-07T09:12:56.180Z,1.50
2022-09-07T09:15:35.961Z,1.50
2022-09-07T09:18:30.741Z,1.52
2022-09-07T09:21:00.001Z,1.38
2022-09-07T09:23:33.939Z,1.52
2022-09-07T09:26:08.082Z,2.03
2022-09-07T09:28:35.562Z,1.77
2022-09-07T09:31:04.006Z,2.08
2022-09-07T09:33:31.294Z,1.48
2022-09-07T09:36:01.143Z,1.85
2022-09-07T09:38:31.986Z,1.75
2022-09-07T09:41:11.885Z,1.33
2022-09-07T09:43:55.849Z,1.88
2022-09-07T09:46:28.117Z,1.55
2022-09-07T09:49:01.363Z,1.50
2022-09-07T09:54:39.172Z,1.45
2022-09-07T09:57:06.747Z,1.48
2022-09-07T10:05:34.390Z,1.40
2022-09-07T10:08:02.715Z,1.30
2022-09-07T10:10:31.387Z,1.48
2022-09-07T10:12:58.925Z,1.40
2022-09-07T10:15:32.875Z,1.75
2022-09-07T10:18:06.047Z,1.40
2022-09-07T10:20:38.005Z,1.50
2022-09-07T10:23:19.142Z,1.35
2022-09-07T10:25:47.550Z,1.35
2022-09-07T10:28:23.930Z,1.08
2022-09-07T10:31:03.632Z,1.08
2022-09-07T10:37:04.416Z,1.60
2022-09-07T10:40:16.892Z,1.40
2022-09-07T10:46:07.450Z,1.98
2022-09-07T10:48:40.804Z,1.38
2022-09-07T10:51:20.946Z,1.33
2022-09-07T10:57:16.770Z,1.30
2022-09-07T11:00:08.263Z,1.30
2022-09-07T11:06:07.299Z,1.30
2022-09-07T11:09:21.939Z,1.02
2022-09-07T11:12:09.605Z,1.30
2022-09-07T11:15:06.253Z,1.92
2022-09-07T11:17:48.328Z,1.42
2022-09-07T11:20:54.645Z,2.10
2022-09-07T11:23:46.325Z,1.60
2022-09-07T11:26:50.572Z,1.63
2022-09-07T11:29:34.081Z,1.70
2022-09-07T11:32:12.771Z,1.80
2022-09-07T11:34:49.563Z,1.50
2022-09-07T11:37:26.749Z,1.77
2022-09-07T11:40:03.674Z,2.13
2022-09-07T11:42:43.589Z,1.60
2022-09-07T11:45:43.359Z,1.50
2022-09-07T11:48:19.477Z,1.20
2022-09-07T11:50:58.858Z,1.38
2022-09-07T11:53:34.011Z,1.75
2022-09-07T11:56:10.992Z,2.22
2022-09-07T11:59:06.208Z,1.48
2022-09-07T12:01:42.428Z,1.52
2022-09-07T12:04:24.906Z,1.80
2022-09-07T12:07:10.982Z,4.78
2022-09-07T12:09:44.305Z,4.50
2022-09-07T12:12:26.407Z,2.45
2022-09-07T12:15:38.254Z,2.10
2022-09-07T12:18:44.191Z,2.25
2022-09-07T12:21:45.078Z,1.88
2022-09-07T12:24:48.420Z,2.00
2022-09-07T12:27:21.898Z,1.73
2022-09-07T12:29:58.513Z,1.40
2022-09-07T12:32:56.030Z,1.88
2022-09-07T12:35:32.646Z,1.80
2022-09-07T12:38:08.214Z,2.40
2022-09-07T12:40:35.392Z,1.75
2022-09-07T12:43:14.599Z,2.08
2022-09-07T12:45:44.856Z,1.85
2022-09-07T12:48:15.291Z,1.40
2022-09-07T12:51:15.356Z,2.25
2022-09-07T12:53:48.384Z,1.55
2022-09-07T12:56:37.595Z,1.55
2022-09-07T12:59:38.080Z,1.50
2022-09-07T13:02:20.318Z,1.85
2022-09-07T13:05:15.818Z,1.85
2022-09-07T13:07:43.026Z,1.20
2022-09-07T13:10:33.630Z,1.70
2022-09-07T13:13:07.793Z,1.33
2022-09-07T13:15:40.987Z,1.23
2022-09-07T13:18:34.508Z,1.02
2022-09-07T13:21:11.943Z,1.73
2022-09-07T13:23:43.715Z,1.80
2022-09-07T13:26:32.445Z,1.20
2022-09-07T13:29:04.291Z,1.67
2022-09-07T13:31:46.223Z,1.30
2022-09-07T13:34:32.326Z,1.40
2022-09-07T13:37:01.365Z,0.82
2022-09-07T13:39:31.147Z,1.40
2022-09-07T13:41:59.773Z,1.15
2022-09-07T13:44:31.326Z,1.10
2022-09-07T13:47:02.972Z,1.35
2022-09-07T13:49:36.284Z,1.20
2022-09-07T13:52:11.699Z,1.20
2022-09-07T13:55:32.631Z,1.08
2022-09-07T13:58:14.635Z,0.93
2022-09-07T14:00:55.923Z,0.80
2022-09-07T14:03:27.102Z,0.90
2022-09-07T14:06:22.606Z,1.05
2022-09-07T14:09:13.255Z,1.50
2022-09-07T14:11:47.863Z,1.85
2022-09-07T14:14:33.226Z,6.90
2022-09-07T14:17:00.874Z,1.45
2022-09-07T14:19:41.057Z,0.95
2022-09-07T14:22:21.822Z,1.42
2022-09-07T14:25:01.435Z,1.23
2022-09-07T14:27:38.902Z,0.70
2022-09-07T14:30:15.300Z,2.47
2022-09-07T14:32:43.956Z,1.10
2022-09-07T14:35:13.556Z,1.05
2022-09-07T14:37:41.759Z,0.80
2022-09-07T14:40:21.885Z,1.02
2022-09-07T14:42:50.777Z,1.27
2022-09-07T14:45:22.368Z,1.20
2022-09-07T14:47:54.899Z,0.98
2022-09-07T14:50:30.925Z,1.00
2022-09-07T14:55:47.418Z,1.05
2022-09-07T14:58:14.599Z,0.80
2022-09-07T15:03:41.184Z,1.00
2022-09-07T15:07:00.951Z,1.00
2022-09-07T15:08:58.251Z,1.00
2022-09-07T15:11:34.256Z,1.08
2022-09-07T15:14:18.087Z,1.00
2022-09-07T15:19:45.557Z,1.10
2022-09-07T15:22:13.670Z,1.00
2022-09-07T15:24:40.886Z,1.27
2022-09-07T15:27:24.520Z,0.80
2022-09-07T15:29:51.704Z,0.90
2022-09-07T15:32:19.237Z,1.25
2022-09-07T15:34:46.668Z,1.20
2022-09-07T15:40:03.893Z,1.15
2022-09-07T15:45:21.206Z,0.82
2022-09-07T15:47:52.504Z,1.15
2022-09-07T15:50:23.065Z,0.88
2022-09-07T15:52:51.215Z,1.73
2022-09-07T15:55:19.211Z,1.20
2022-09-07T15:57:49.218Z,1.15
2022-09-07T16:00:20.543Z,0.80
2022-09-07T16:03:05.651Z,1.15
2022-09-07T16:05:35.264Z,0.60
2022-09-07T16:10:55.682Z,0.98
2022-09-07T16:13:25.845Z,0.90
2022-09-07T16:15:53.171Z,1.02
2022-09-07T16:18:20.736Z,1.50
2022-09-07T16:20:52.751Z,1.67
2022-09-07T16:23:20.456Z,1.40
2022-09-07T16:25:58.780Z,1.23
2022-09-07T16:28:27.012Z,1.60
2022-09-07T16:30:55.950Z,1.42
2022-09-07T16:33:29.147Z,6.60
2022-09-07T16:36:02.647Z,1.13
2022-09-07T16:38:47.463Z,1.63
2022-09-07T16:41:20.587Z,1.20
2022-09-07T16:43:48.783Z,0.93
2022-09-07T16:46:18.820Z,1.10
2022-09-07T16:48:47.045Z,1.40
2022-09-07T16:51:16.521Z,1.35
2022-09-07T16:53:43.749Z,1.77
2022-09-07T16:56:13.764Z,1.05
2022-09-07T16:58:46.712Z,1.67
2022-09-07T17:01:16.751Z,1.70
2022-09-07T17:03:44.738Z,1.50
2022-09-07T17:06:13.883Z,1.00
2022-09-07T17:08:41.966Z,1.52
2022-09-07T17:11:14.824Z,1.35
2022-09-07T17:13:43.222Z,1.00
2022-09-07T17:16:12.986Z,1.00
2022-09-07T17:21:33.558Z,1.52
2022-09-07T17:24:03.807Z,1.60
2022-09-07T17:26:32.200Z,1.60
2022-09-07T17:29:00.897Z,1.38
2022-09-07T17:34:21.874Z,1.38
2022-09-07T17:36:49.318Z,1.08
2022-09-07T17:39:18.429Z,1.67
2022-09-07T17:41:48.652Z,1.85
2022-09-07T17:44:16.216Z,1.02
2022-09-07T17:46:43.590Z,1.15
2022-09-07T17:49:13.941Z,1.80
2022-09-07T17:51:41.709Z,1.55
2022-09-07T17:54:13.588Z,1.48
2022-09-07T17:56:41.725Z,1.58
2022-09-07T18:01:57.235Z,1.30
2022-09-07T18:04:25.077Z,1.50
2022-09-07T18:06:56.069Z,1.85
2022-09-07T18:09:23.994Z,1.92
2022-09-07T18:11:51.350Z,2.30
2022-09-07T18:14:19.682Z,1.90
2022-09-07T18:16:49.410Z,1.90
2022-09-07T18:19:18.615Z,1.40
2022-09-07T18:21:48.022Z,1.70
2022-09-07T18:24:19.383Z,2.03
2022-09-07T18:26:52.198Z,1.65
2022-09-07T18:29:32.287Z,2.20
2022-09-07T18:32:02.929Z,2.05
2022-09-07T18:34:31.759Z,2.17
2022-09-07T18:36:59.897Z,1.90
2022-09-07T18:39:27.959Z,2.90
2022-09-07T18:41:55.402Z,2.00
2022-09-07T18:47:21.632Z,3.08
2022-09-07T18:49:54.908Z,1.92
2022-09-07T18:55:14.279Z,2.42
2022-09-07T18:57:44.861Z,2.70
2022-09-07T19:00:18.163Z,2.30
2022-09-07T19:02:49.847Z,3.97
2022-09-07T19:08:08.697Z,3.78
2022-09-07T19:10:37.682Z,3.38
2022-09-07T19:13:05.022Z,2.40
2022-09-07T19:15:37.309Z,2.95
2022-09-07T19:18:06.115Z,3.65
2022-09-07T19:20:34.479Z,5.35
2022-09-07T19:23:01.788Z,4.28
2022-09-07T19:25:29.036Z,3.22
2022-09-07T19:27:59.675Z,3.15
2022-09-07T19:30:27.854Z,2.97
2022-09-07T19:32:55.123Z,2.65
2022-09-07T19:35:22.445Z,2.60
2022-09-07T19:37:49.797Z,2.65
2022-09-07T19:40:19.224Z,2.22
2022-09-07T19:42:46.803Z,2.25
2022-09-07T19:45:15.035Z,1.88
2022-09-07T19:47:42.452Z,2.30
2022-09-07T19:50:09.848Z,2.00
2022-09-07T19:52:37.071Z,2.25
2022-09-07T19:55:04.578Z,2.55
2022-09-07T19:57:31.814Z,2.72
2022-09-07T20:00:02.580Z,2.78
2022-09-07T20:02:39.684Z,2.30
2022-09-07T20:05:07.216Z,1.98
2022-09-07T20:07:34.402Z,2.42
2022-09-07T20:10:01.701Z,2.83
2022-09-07T20:12:28.927Z,2.65
2022-09-07T20:14:56.315Z,2.83
2022-09-07T20:17:23.582Z,2.90
2022-09-07T20:19:50.769Z,2.70
2022-09-07T20:22:18.045Z,2.83
2022-09-07T20:24:45.377Z,2.30
2022-09-07T20:27:12.631Z,2.83
2022-09-07T20:29:40.769Z,3.45
2022-09-07T20:32:08.278Z,2.45
2022-09-07T20:34:36.053Z,2.53
2022-09-07T20:37:03.375Z,2.72
2022-09-07T20:39:31.418Z,2.97
2022-09-07T20:42:00.781Z,2.83
2022-09-07T20:44:28.124Z,2.90
2022-09-07T20:46:55.563Z,3.28
2022-09-07T20:49:22.887Z,3.22
2022-09-07T20:51:50.105Z,3.33
2022-09-07T20:54:17.390Z,2.80
2022-09-07T20:56:45.201Z,3.20
2022-09-07T20:59:12.454Z,3.00
2022-09-07T21:01:39.708Z,2.85
2022-09-07T21:04:13.511Z,3.17
2022-09-07T21:06:40.784Z,2.72
2022-09-07T21:09:08.199Z,2.35
2022-09-07T21:11:36.147Z,2.78
2022-09-07T21:14:06.687Z,2.58
2022-09-07T21:16:35.496Z,3.08
2022-09-07T21:19:08.028Z,2.85
2022-09-07T21:21:38.943Z,1.85
2022-09-07T21:24:11.918Z,2.65
2022-09-07T21:26:39.232Z,2.15
2022-09-07T21:29:07.238Z,1.90
2022-09-07T21:31:34.575Z,1.95
2022-09-07T21:34:02.478Z,2.00
2022-09-07T21:36:30.058Z,2.08
2022-09-07T21:38:57.370Z,2.50
2022-09-07T21:41:25.638Z,2.85
2022-09-07T21:43:57.558Z,2.83
2022-09-07T21:46:25.967Z,2.40
2022-09-07T21:48:55.145Z,2.15
2022-09-07T21:51:23.428Z,2.50
2022-09-07T21:53:55.439Z,2.72
2022-09-07T21:56:23.115Z,2.17
2022-09-07T21:58:58.816Z,2.10
2022-09-07T22:01:27.863Z,1.90
2022-09-07T22:04:13.582Z,2.25
2022-09-07T22:06:41.070Z,2.40
2022-09-07T22:09:08.343Z,1.67
2022-09-07T22:11:35.638Z,1.92
2022-09-07T22:14:04.371Z,2.75
2022-09-07T22:16:33.852Z,2.38
2022-09-07T22:19:01.227Z,2.03
2022-09-07T22:21:29.883Z,2.00
2022-09-07T22:24:02.739Z,1.85
2022-09-07T22:26:33.331Z,1.95
2022-09-07T22:29:00.751Z,1.73
2022-09-07T22:31:30.994Z,1.60
2022-09-07T22:33:59.598Z,2.08
2022-09-07T22:36:29.712Z,1.77
2022-09-07T22:39:01.186Z,1.98
2022-09-07T22:41:31.067Z,1.73
2022-09-07T22:43:58.723Z,1.60
2022-09-07T22:46:28.200Z,1.90
2022-09-07T22:48:57.423Z,1.90
2022-09-07T22:51:26.620Z,1.98
2022-09-07T22:53:54.753Z,1.45
2022-09-07T22:56:24.869Z,1.67
2022-09-07T22:58:55.297Z,1.75
2022-09-07T23:01:23.472Z,2.13
2022-09-07T23:03:51.471Z,1.70
2022-09-07T23:06:36.575Z,2.05
2022-09-07T23:09:15.747Z,1.70
2022-09-07T23:11:43.683Z,2.08
2022-09-07T23:14:19.477Z,1.52
2022-09-07T23:16:46.873Z,1.60
2022-09-07T23:19:15.549Z,1.70
2022-09-07T23:21:43.415Z,1.80
2022-09-07T23:24:13.638Z,1.60
2022-09-07T23:26:41.160Z,1.40
2022-09-07T23:29:11.172Z,2.15
2022-09-07T23:31:38.748Z,2.10
2022-09-07T23:34:06.414Z,1.65
2022-09-07T23:36:34.059Z,2.05
2022-09-07T23:39:01.366Z,1.90
2022-09-07T23:41:28.976Z,1.58
2022-09-07T23:43:57.133Z,1.48
2022-09-07T23:46:24.796Z,1.92
2022-09-07T23:48:52.174Z,1.75
2022-09-07T23:51:23.899Z,1.75
2022-09-07T23:53:52.588Z,1.50
2022-09-07T23:56:20.720Z,1.75
2022-09-07T23:58:47.930Z,1.80
